Time;durP1;ratioP1;P1;durP2;ratioP2;P2;SDS_P1;SDS_P2;PMS_P1;PMS_P2;Temp;Humidity;BMP_temperature;BMP_pressure;BME280_temperature;BME280_humidity;BME280_pressure;Samples;Min_cycle;Max_cycle;Signal;HPM_P1;HPM_P2
2022/12/27 00:00:36;;;;;;;1.33;1.00;;;;;;;10.50;61.44;99319.78;5106372;28;20115;-75
2022/12/27 00:03:03;;;;;;;1.55;1.05;;;;;;;10.50;61.60;99317.16;5106933;28;20035;-75
2022/12/27 00:05:30;;;;;;;1.48;1.20;;;;;;;10.51;61.61;99308.25;5106246;28;20111;-75
2022/12/27 00:07:57;;;;;;;1.48;1.10;;;;;;;10.51;61.57;99310.06;5105430;28;20063;-76
2022/12/27 00:10:25;;;;;;;1.67;1.10;;;;;;;10.50;61.63;99314.50;5105414;28;20307;-75
2022/12/27 00:12:52;;;;;;;1.50;1.17;;;;;;;10.51;61.49;99321.50;5106245;28;20044;-75
2022/12/27 00:15:19;;;;;;;1.60;1.25;;;;;;;10.52;61.79;99322.38;5105369;28;20032;-75
2022/12/27 00:17:45;;;;;;;1.80;1.33;;;;;;;10.50;61.43;99327.75;5106391;28;20050;-75
2022/12/27 00:20:12;;;;;;;1.50;1.00;;;;;;;10.19;61.35;99280.91;5106323;28;20036;-75
2022/12/27 00:22:40;;;;;;;2.00;1.27;;;;;;;10.50;61.43;99332.19;5105290;28;20032;-75
2022/12/27 00:25:08;;;;;;;1.50;1.10;;;;;;;10.49;61.80;99333.13;5104175;28;20062;-75
2022/12/27 00:27:36;;;;;;;1.73;1.20;;;;;;;10.46;61.53;99342.09;5104721;28;20055;-75
2022/12/27 00:30:04;;;;;;;1.90;1.30;;;;;;;10.48;61.72;99344.66;5105782;28;20048;-75
2022/12/27 00:32:31;;;;;;;1.58;1.10;;;;;;;10.47;61.54;99338.50;5105043;28;20052;-75
2022/12/27 00:34:58;;;;;;;1.73;1.10;;;;;;;10.47;61.76;99351.75;5106230;28;20035;-75
2022/12/27 00:37:25;;;;;;;1.35;1.10;;;;;;;10.46;61.60;99360.66;5106456;28;20040;-75
2022/12/27 00:39:51;;;;;;;2.05;1.13;;;;;;;10.45;62.01;99356.28;5105088;28;20039;-75
2022/12/27 00:42:18;;;;;;;1.50;1.10;;;;;;;9.63;61.94;99193.97;5105686;28;20043;-75
2022/12/27 00:44:47;;;;;;;1.55;1.23;;;;;;;10.40;61.80;99355.69;5104969;28;20043;-75
2022/12/27 00:47:14;;;;;;;2.00;1.15;;;;;;;10.37;62.26;99355.00;5105030;28;20050;-74
2022/12/27 00:49:41;;;;;;;2.13;1.20;;;;;;;10.33;62.28;99353.44;5105799;28;20060;-75
2022/12/27 00:52:08;;;;;;;2.90;1.10;;;;;;;9.85;62.13;99271.28;5106333;28;20036;-74
2022/12/27 00:54:35;;;;;;;1.50;1.00;;;;;;;9.82;62.46;99284.66;5104723;28;20368;-74
2022/12/27 00:57:02;;;;;;;1.60;1.15;;;;;;;10.25;62.42;99364.47;5105051;28;20311;-74
2022/12/27 00:59:28;;;;;;;2.10;1.23;;;;;;;10.03;62.46;99332.13;5105760;28;20300;-74
2022/12/27 01:01:56;;;;;;;1.50;1.15;;;;;;;10.17;62.43;99372.81;5105455;28;20043;-75
2022/12/27 01:04:23;;;;;;;1.55;1.10;;;;;;;10.16;62.69;99389.63;5105942;28;20054;-75
2022/12/27 01:06:50;;;;;;;1.60;1.20;;;;;;;10.15;62.80;99389.72;5105844;28;20040;-74
2022/12/27 01:09:17;;;;;;;1.42;1.10;;;;;;;9.92;62.82;99348.56;5105663;28;20272;-75
2022/12/27 01:11:44;;;;;;;1.48;1.10;;;;;;;9.87;62.33;99367.34;5105773;28;20048;-75
2022/12/27 01:14:11;;;;;;;1.77;1.10;;;;;;;10.08;62.89;99398.94;5104632;28;20040;-74
2022/12/27 01:16:39;;;;;;;1.80;1.25;;;;;;;10.06;63.03;99412.25;5105149;28;20066;-74
2022/12/27 01:19:07;;;;;;;1.77;1.48;;;;;;;10.05;63.20;99430.88;5105469;28;20107;-75
2022/12/27 01:21:34;;;;;;;1.70;1.10;;;;;;;9.84;62.97;99364.84;5105181;28;20067;-75
2022/12/27 01:24:01;;;;;;;1.80;1.20;;;;;;;10.00;63.47;99423.16;5105447;28;20044;-74
2022/12/27 01:26:28;;;;;;;2.00;1.30;;;;;;;10.02;63.88;99445.13;5104545;28;20044;-75
2022/12/27 01:28:54;;;;;;;1.65;1.15;;;;;;;9.93;63.65;99427.91;5105840;28;20040;-75
2022/12/27 01:31:23;;;;;;;2.35;1.20;;;;;;;9.50;64.04;99386.03;5107020;28;20040;-75
2022/12/27 01:33:53;;;;;;;1.63;1.10;;;;;;;9.96;64.11;99463.97;5104593;28;20258;-73
2022/12/27 01:36:23;;;;;;;1.80;1.20;;;;;;;9.78;64.36;99444.56;5107127;28;20276;-74
2022/12/27 01:38:50;;;;;;;3.58;1.20;;;;;;;9.93;64.46;99449.09;5108628;28;20082;-73
2022/12/27 01:44:37;;;;;;;1.70;1.20;;;;;;;9.88;64.37;99451.13;5109836;28;20044;-73
2022/12/27 01:47:12;;;;;;;1.55;1.10;;;;;;;9.86;64.76;99455.63;5110655;28;20090;-73
2022/12/27 01:49:40;;;;;;;1.90;1.25;;;;;;;9.86;64.88;99479.47;5110134;28;20051;-73
2022/12/27 01:52:11;;;;;;;2.35;1.10;;;;;;;9.84;64.78;99462.78;5110184;28;20230;-72
2022/12/27 01:54:38;;;;;;;1.58;1.20;;;;;;;9.83;64.96;99476.97;5111589;28;20048;-74
2022/12/27 01:57:05;;;;;;;1.98;1.30;;;;;;;9.49;64.95;99421.34;5109139;28;20051;-72
2022/12/27 01:59:33;;;;;;;1.98;1.25;;;;;;;9.81;64.93;99476.19;5108822;28;20089;-73
2022/12/27 02:02:00;;;;;;;1.73;1.20;;;;;;;9.79;65.13;99477.19;5109013;28;20046;-73
2022/12/27 02:04:30;;;;;;;1.90;1.35;;;;;;;9.27;65.13;99417.09;5109739;28;20044;-74
2022/12/27 02:06:59;;;;;;;2.15;1.38;;;;;;;9.56;65.34;99462.47;5109306;28;20043;-74
2022/12/27 02:09:33;;;;;;;2.05;1.30;;;;;;;9.75;65.21;99518.84;5108519;28;20036;-73
2022/12/27 02:12:01;;;;;;;;;;;;;;;9.68;65.28;99490.97;5109757;28;20040;-74
2022/12/27 02:14:31;;;;;;;1.58;1.15;;;;;;;9.69;65.47;99483.88;5108119;28;19923;-74
2022/12/27 02:17:00;;;;;;;2.63;1.38;;;;;;;9.71;65.61;99506.69;5091510;28;20039;-74
2022/12/27 02:19:38;;;;;;;2.10;1.40;;;;;;;9.52;65.41;99487.34;5108203;28;20048;-73
2022/12/27 02:24:01;;;;;;;2.00;1.30;;;;;;;9.00;65.36;99411.31;5108996;28;20296;-75
2022/12/27 02:25:34;;;;;;;1.75;1.20;;;;;;;9.66;65.60;99539.59;5108507;28;20044;-74
2022/12/27 02:28:14;;;;;;;2.17;1.30;;;;;;;9.65;65.50;99543.19;5091400;28;20300;-75
2022/12/27 02:30:46;;;;;;;2.10;1.42;;;;;;;9.63;65.69;99543.25;5108210;28;20043;-74
2022/12/27 02:33:18;;;;;;;1.83;1.30;;;;;;;8.86;65.81;99439.34;5108457;28;20067;-75
2022/12/27 02:35:50;;;;;;;2.05;1.63;;;;;;;9.60;65.65;99538.97;5109141;28;20036;-74
2022/12/27 02:38:21;;;;;;;2.42;1.50;;;;;;;9.60;65.81;99538.09;5108864;28;20039;-74
2022/12/27 02:55:17;;;;;;;1.80;1.20;;;;;;;9.48;65.36;99558.06;5108256;28;20036;-73
2022/12/27 02:57:53;;;;;;;2.10;1.42;;;;;;;9.51;65.66;99557.94;5107892;28;20043;-73
2022/12/27 03:03:30;;;;;;;2.10;1.30;;;;;;;9.50;65.23;99579.16;5107761;28;20097;-74
2022/12/27 03:06:42;;;;;;;1.48;1.10;;;;;;;9.49;65.19;99588.88;5107976;28;20054;-74
2022/12/27 03:15:58;;;;;;;1.50;1.10;;;;;;;9.43;65.61;99591.81;5107733;28;20047;-74
2022/12/27 03:18:37;;;;;;;1.85;1.27;;;;;;;9.42;65.77;99597.19;5106976;28;20040;-74
2022/12/27 03:26:43;;;;;;;1.83;1.20;;;;;;;8.95;65.98;99542.00;5107491;28;20127;-74
2022/12/27 03:34:52;;;;;;;3.33;1.95;;;;;;;9.30;66.46;99596.78;5107532;28;20063;-74
2022/12/27 03:40:15;;;;;;;2.75;1.80;;;;;;;9.31;66.23;99614.38;5107479;28;20063;-74
2022/12/27 03:48:37;;;;;;;1.92;1.30;;;;;;;9.23;65.34;99632.38;5090982;28;20205;-74
2022/12/27 03:51:07;;;;;;;1.65;1.20;;;;;;;9.21;65.49;99639.53;5106955;28;20062;-74
2022/12/27 03:53:38;;;;;;;1.75;1.27;;;;;;;9.18;64.88;99638.78;5104868;28;20036;-75
2022/12/27 03:56:07;;;;;;;1.63;1.23;;;;;;;9.18;65.33;99642.28;5086793;28;20044;-74
2022/12/27 03:58:34;;;;;;;1.50;1.20;;;;;;;9.14;64.75;99638.06;5086753;28;20051;-73
2022/12/27 04:01:01;;;;;;;1.80;1.30;;;;;;;8.98;65.13;99627.31;5086326;28;20075;-73
2022/12/27 04:03:27;;;;;;;1.85;1.30;;;;;;;9.09;64.84;99633.91;5086560;28;20041;-73
2022/12/27 04:05:54;;;;;;;1.85;1.35;;;;;;;9.06;64.74;99660.47;5086703;28;20048;-74
2022/12/27 04:35:46;;;;;;;1.90;1.40;;;;;;;8.56;64.83;99674.94;5088145;28;20123;-74
2022/12/27 04:38:12;;;;;;;2.20;1.30;;;;;;;8.76;64.85;99704.94;5088579;28;20040;-74
2022/12/27 04:57:19;;;;;;;2.30;1.50;;;;;;;8.55;64.92;99744.53;5084767;28;20075;-73
2022/12/27 05:02:31;;;;;;;2.63;1.40;;;;;;;8.54;64.54;99765.75;5084855;28;20068;-73
2022/12/27 05:04:58;;;;;;;1.90;1.33;;;;;;;8.53;64.69;99756.09;5086024;28;20318;-74
2022/12/27 05:15:40;;;;;;;3.28;1.40;;;;;;;8.37;65.17;99799.88;5088647;28;20083;-73
2022/12/27 05:18:07;;;;;;;2.55;1.50;;;;;;;8.39;65.24;99796.28;5088868;28;20296;-74
2022/12/27 05:20:34;;;;;;;2.83;1.60;;;;;;;8.40;65.02;99790.06;5090287;28;20044;-74
2022/12/27 05:25:47;;;;;;;2.20;1.50;;;;;;;8.38;65.18;99789.25;5088692;28;20044;-74
2022/12/27 05:28:15;;;;;;;2.22;1.40;;;;;;;8.38;64.82;99805.13;5088540;28;20059;-74
2022/12/27 05:30:44;;;;;;;2.35;1.63;;;;;;;8.35;64.77;99805.22;5089491;28;20066;-74
2022/12/27 05:33:11;;;;;;;2.10;1.30;;;;;;;8.22;64.29;99780.22;5089068;28;20060;-74
2022/12/27 05:35:38;;;;;;;2.50;1.60;;;;;;;7.78;64.21;99748.47;5089464;28;20056;-74
2022/12/27 05:38:05;;;;;;;2.20;1.30;;;;;;;8.27;63.20;99821.38;5089443;28;20106;-74
2022/12/27 05:40:32;;;;;;;2.95;1.67;;;;;;;8.26;63.40;99824.94;5088360;28;20044;-74
2022/12/27 05:42:59;;;;;;;2.10;1.40;;;;;;;8.24;63.11;99804.78;5089164;28;20051;-74
2022/12/27 05:45:29;;;;;;;2.88;1.60;;;;;;;7.53;62.62;99708.94;5088426;28;20040;-74
2022/12/27 05:47:56;;;;;;;2.30;1.45;;;;;;;8.21;62.99;99833.94;5088316;28;20036;-74
2022/12/27 05:50:23;;;;;;;2.40;1.58;;;;;;;7.73;62.56;99768.03;5089036;28;20048;-74
2022/12/27 05:52:50;;;;;;;3.00;1.80;;;;;;;8.16;62.35;99839.41;5088680;28;20086;-75
2022/12/27 05:55:17;;;;;;;2.38;1.60;;;;;;;8.15;62.17;99864.09;5089226;28;20044;-74
2022/12/27 05:57:44;;;;;;;2.40;1.50;;;;;;;8.12;62.22;99858.91;5087726;28;20312;-74
2022/12/27 06:00:13;;;;;;;2.63;1.60;;;;;;;8.10;61.87;99863.41;5088604;28;20052;-73
2022/12/27 06:02:42;;;;;;;3.67;1.50;;;;;;;8.09;61.84;99866.94;5088993;28;20090;-74
2022/12/27 06:05:09;;;;;;;2.30;1.58;;;;;;;8.08;61.79;99881.06;5089589;28;20063;-74
2022/12/27 06:07:36;;;;;;;2.63;1.60;;;;;;;8.08;61.78;99885.50;5089016;28;20055;-74
2022/12/27 06:10:04;;;;;;;5.75;1.88;;;;;;;8.06;61.78;99885.53;5088664;28;20087;-74
2022/12/27 06:12:30;;;;;;;3.15;1.90;;;;;;;8.05;61.28;99898.78;5087784;28;20048;-74
2022/12/27 06:14:57;;;;;;;2.95;1.70;;;;;;;8.03;61.05;99910.28;5088646;28;20041;-74
2022/12/27 06:17:24;;;;;;;2.20;1.40;;;;;;;8.00;59.61;99904.25;5087981;28;20044;-74
2022/12/27 06:19:52;;;;;;;2.35;1.50;;;;;;;7.96;60.31;99929.03;5089302;28;20311;-74
2022/12/27 06:22:19;;;;;;;2.50;1.50;;;;;;;7.93;60.26;99919.44;5088006;28;20082;-74
2022/12/27 06:24:47;;;;;;;4.05;1.40;;;;;;;7.91;59.68;99952.06;5088977;28;20063;-74
2022/12/27 06:27:14;;;;;;;2.33;1.40;;;;;;;7.63;59.51;99915.22;5088071;28;20052;-74
2022/12/27 06:29:41;;;;;;;3.13;1.60;;;;;;;7.79;59.05;99963.06;5088843;28;20036;-74
2022/12/27 06:32:07;;;;;;;2.55;1.60;;;;;;;7.77;59.19;99975.44;5087243;28;20048;-74
2022/12/27 06:34:34;;;;;;;3.58;1.70;;;;;;;7.72;58.71;99980.88;5088722;28;20052;-74
2022/12/27 06:37:04;;;;;;;2.30;1.63;;;;;;;7.69;58.79;99987.13;5088527;28;20048;-74
2022/12/27 06:39:31;;;;;;;2.35;1.67;;;;;;;7.64;58.24;99990.81;5088448;28;20060;-74
2022/12/27 06:41:57;;;;;;;3.05;1.67;;;;;;;7.59;58.55;99990.09;5088350;28;20041;-74
2022/12/27 06:44:25;;;;;;;2.60;1.80;;;;;;;7.03;58.16;99906.63;5070659;28;20089;-73
2022/12/27 06:46:52;;;;;;;2.53;1.60;;;;;;;7.53;58.14;100000.84;5087398;28;20051;-74
2022/12/27 06:49:19;;;;;;;2.97;1.40;;;;;;;7.51;58.30;100021.16;5088304;28;20059;-74
2022/12/27 06:51:47;;;;;;;2.17;1.50;;;;;;;7.46;58.21;100030.97;5088254;28;20075;-74
2022/12/27 06:54:15;;;;;;;4.30;1.80;;;;;;;7.38;57.67;100039.13;5089057;28;20068;-74
2022/12/27 06:56:42;;;;;;;2.53;1.70;;;;;;;7.36;58.14;100031.28;5088779;28;20102;-74
2022/12/27 06:59:08;;;;;;;2.70;1.80;;;;;;;7.29;57.55;100037.63;5088675;28;20098;-74
2022/12/27 07:01:35;;;;;;;2.67;1.50;;;;;;;7.25;57.63;100061.47;5088433;28;20040;-74
2022/12/27 07:04:02;;;;;;;3.20;1.63;;;;;;;7.16;57.55;100069.66;5088443;28;20036;-74
2022/12/27 07:06:31;;;;;;;3.22;1.60;;;;;;;7.09;57.09;100065.50;5088469;28;20055;-74
2022/12/27 07:08:59;;;;;;;3.75;1.80;;;;;;;7.07;57.33;100095.38;5088227;28;20044;-74
2022/12/27 07:11:28;;;;;;;2.88;1.75;;;;;;;7.10;57.53;100093.56;5088274;28;20051;-75
2022/12/27 07:13:56;;;;;;;3.25;1.70;;;;;;;7.11;57.56;100119.03;5087972;28;20041;-74
2022/12/27 07:16:24;;;;;;;3.88;1.63;;;;;;;7.06;57.65;100095.44;5087985;28;20040;-74
2022/12/27 07:18:51;;;;;;;2.70;1.60;;;;;;;6.97;57.24;100109.75;5087367;28;20318;-74
2022/12/27 07:21:21;;;;;;;2.17;1.33;;;;;;;6.47;57.16;100029.47;5087834;28;20036;-74
2022/12/27 07:23:49;;;;;;;3.05;1.65;;;;;;;7.05;57.52;100125.34;5088352;28;20040;-74
2022/12/27 07:26:17;;;;;;;2.47;1.70;;;;;;;7.04;57.01;100136.78;5088046;28;20037;-74
2022/12/27 07:28:46;;;;;;;3.25;1.70;;;;;;;7.01;56.88;100135.09;5087170;28;20040;-74
2022/12/27 07:31:15;;;;;;;3.55;2.30;;;;;;;7.05;57.25;100143.78;5088017;28;20048;-74
2022/12/27 07:33:42;;;;;;;4.15;2.08;;;;;;;7.07;57.30;100152.50;5086602;28;20060;-74
2022/12/27 07:36:12;;;;;;;3.80;1.80;;;;;;;7.04;56.38;100149.97;5087990;28;20047;-74
2022/12/27 07:38:39;;;;;;;2.70;1.80;;;;;;;7.01;56.28;100161.47;5087797;28;20048;-74
2022/12/27 07:41:06;;;;;;;3.30;2.05;;;;;;;7.02;56.47;100163.19;5087098;28;20045;-74
2022/12/27 07:43:34;;;;;;;2.42;1.58;;;;;;;7.04;56.20;100152.59;5086579;28;20032;-74
2022/12/27 07:46:08;;;;;;;2.50;1.60;;;;;;;7.03;54.28;100151.75;5086297;28;20059;-74
2022/12/27 07:48:35;;;;;;;2.47;1.60;;;;;;;7.03;56.34;100159.66;5087764;28;20051;-74
2022/12/27 07:51:03;;;;;;;3.10;2.10;;;;;;;7.05;56.39;100164.88;5087397;28;20067;-74
2022/12/27 07:53:30;;;;;;;2.58;1.75;;;;;;;7.06;56.04;100178.00;5087378;28;20316;-74
2022/12/27 07:55:58;;;;;;;5.65;1.70;;;;;;;7.07;56.04;100182.38;5086486;28;20108;-74
2022/12/27 07:58:25;;;;;;;3.35;2.00;;;;;;;6.99;55.91;100170.31;5086041;28;20174;-74
2022/12/27 08:00:52;;;;;;;3.35;1.77;;;;;;;7.14;55.66;100198.03;5087123;28;20040;-74
2022/12/27 08:03:20;;;;;;;2.40;1.50;;;;;;;7.22;54.92;100210.09;5086696;28;20044;-74
2022/12/27 08:05:48;;;;;;;2.70;1.80;;;;;;;7.28;55.19;100207.28;5086897;28;20045;-74
2022/12/27 08:08:17;;;;;;;2.50;1.65;;;;;;;7.41;55.21;100214.88;5085372;28;20036;-74
2022/12/27 08:10:44;;;;;;;2.58;1.55;;;;;;;7.49;54.99;100215.50;5086817;28;20051;-74
2022/12/27 08:13:11;;;;;;;2.83;1.65;;;;;;;7.59;54.68;100216.97;5085956;28;20340;-74
2022/12/27 08:15:39;;;;;;;3.50;1.70;;;;;;;7.64;54.90;100221.22;5086159;28;20040;-74
2022/12/27 08:18:06;;;;;;;3.50;2.75;;;;;;;7.70;54.45;100233.34;5086205;28;20041;-74
2022/12/27 08:20:34;;;;;;;3.92;2.15;;;;;;;7.77;54.23;100234.03;5086641;28;20052;-74
2022/12/27 08:23:01;;;;;;;4.63;2.25;;;;;;;7.88;54.29;100239.84;5086044;28;20046;-74
2022/12/27 08:25:29;;;;;;;3.63;1.70;;;;;;;7.97;53.60;100239.56;5086357;28;20054;-74
2022/12/27 08:28:02;;;;;;;2.33;1.60;;;;;;;7.96;50.83;100249.28;5085287;28;20044;-74
2022/12/27 08:30:29;;;;;;;2.72;1.80;;;;;;;7.91;53.38;100251.19;5086156;28;20048;-74
2022/12/27 08:32:56;;;;;;;3.05;2.15;;;;;;;7.91;53.77;100250.31;5086059;28;20082;-74
2022/12/27 08:35:24;;;;;;;2.65;1.65;;;;;;;7.90;53.67;100252.09;5085071;28;20051;-74
2022/12/27 08:37:52;;;;;;;3.47;1.80;;;;;;;7.83;52.76;100244.41;5085730;28;20054;-74
2022/12/27 08:40:19;;;;;;;2.50;1.58;;;;;;;7.83;53.76;100252.31;5085125;28;20036;-74
2022/12/27 08:42:47;;;;;;;2.90;1.75;;;;;;;7.83;53.92;100249.69;5085154;28;20264;-74
2022/12/27 08:45:14;;;;;;;5.60;1.95;;;;;;;7.76;53.59;100250.78;5084651;28;20047;-74
2022/12/27 08:47:42;;;;;;;2.85;1.67;;;;;;;7.85;52.93;100261.06;5084701;28;20243;-74
2022/12/27 08:50:09;;;;;;;2.63;1.67;;;;;;;7.82;53.45;100259.38;5085644;28;20051;-74
2022/12/27 08:52:37;;;;;;;2.47;1.50;;;;;;;7.82;53.26;100254.09;5086328;28;20192;-74
2022/12/27 08:55:06;;;;;;;2.60;1.80;;;;;;;7.77;52.64;100257.78;5086030;28;20044;-74
2022/12/27 08:57:33;;;;;;;2.90;1.52;;;;;;;7.67;53.28;100258.06;5085705;28;20082;-75
2022/12/27 09:00:00;;;;;;;4.05;1.88;;;;;;;7.67;53.51;100265.97;5085834;28;20044;-74
2022/12/27 09:02:26;;;;;;;4.50;1.88;;;;;;;7.64;53.59;100267.84;5085973;28;20098;-74
2022/12/27 09:04:53;;;;;;;2.53;1.80;;;;;;;7.56;53.61;100268.06;5086243;28;20048;-74
2022/12/27 09:07:20;;;;;;;2.63;1.70;;;;;;;7.54;53.93;100274.28;5085668;28;20040;-74
2022/12/27 09:09:47;;;;;;;3.17;2.00;;;;;;;7.52;54.06;100284.88;5084799;28;20324;-74
2022/12/27 09:12:15;;;;;;;4.43;2.20;;;;;;;7.47;53.66;100294.69;5085818;28;20045;-74
2022/12/27 09:14:42;;;;;;;3.60;1.88;;;;;;;7.48;54.15;100285.88;5084695;28;20044;-74
2022/12/27 09:17:09;;;;;;;3.05;2.15;;;;;;;7.47;54.26;100285.91;5085866;28;20248;-74
2022/12/27 09:19:36;;;;;;;4.53;2.28;;;;;;;7.37;54.22;100269.47;5084620;28;20119;-74
2022/12/27 09:22:03;;;;;;;3.22;1.80;;;;;;;7.58;54.12;100287.34;5085646;28;20044;-74
2022/12/27 09:24:33;;;;;;;2.75;1.88;;;;;;;7.58;54.01;100291.75;5085826;28;20105;-74
2022/12/27 09:26:59;;;;;;;3.22;2.10;;;;;;;7.62;53.79;100298.66;5084463;28;20045;-74
2022/12/27 09:29:28;;;;;;;3.33;2.33;;;;;;;7.74;53.82;100300.97;5084279;28;20208;-74
2022/12/27 09:31:54;;;;;;;3.35;2.13;;;;;;;7.90;53.23;100302.25;5085417;28;20060;-75
2022/12/27 09:34:21;;;;;;;3.85;1.60;;;;;;;7.98;52.58;100302.88;5083996;28;20082;-74
2022/12/27 09:36:48;;;;;;;5.70;2.17;;;;;;;8.07;52.60;100301.75;5084745;28;20043;-74
2022/12/27 09:39:16;;;;;;;3.58;1.90;;;;;;;7.97;52.27;100265.97;5084581;28;20338;-74
2022/12/27 09:41:54;;;;;;;2.40;1.50;;;;;;;8.18;50.22;100314.63;5085374;28;20045;-74
2022/12/27 09:44:26;;;;;;;3.45;2.00;;;;;;;8.19;50.99;100309.31;5084258;28;20032;-74
2022/12/27 09:47:00;;;;;;;5.13;1.90;;;;;;;8.27;50.72;100298.50;5083601;28;20131;-74
2022/12/27 09:49:31;;;;;;;2.70;1.80;;;;;;;8.34;50.76;100297.41;5084551;28;20086;-74
2022/12/27 09:52:01;;;;;;;4.18;1.95;;;;;;;8.45;50.63;100308.50;5085232;28;20050;-74
2022/12/27 09:54:37;;;;;;;3.10;1.80;;;;;;;8.51;49.04;100296.88;5085252;28;20102;-74
2022/12/27 09:57:12;;;;;;;2.90;1.80;;;;;;;8.52;50.61;100293.31;5084679;28;20048;-74
2022/12/27 09:59:42;;;;;;;;;;;;;;;8.55;46.57;100283.50;5089381;28;20044;-74
2022/12/27 10:02:19;;;;;;;3.38;1.63;;;;;;;8.69;48.18;100280.44;5089059;28;19990;-74
2022/12/27 10:04:46;;;;;;;2.60;1.60;;;;;;;8.83;50.65;100288.75;5087503;28;20044;-74
2022/12/27 10:07:21;;;;;;;3.72;2.00;;;;;;;8.97;49.15;100302.38;5088652;28;20053;-74
2022/12/27 10:10:00;;;;;;;3.53;1.90;;;;;;;8.49;47.25;100179.81;5087951;28;20223;-74
2022/12/27 10:12:52;;;;;;;2.80;1.70;;;;;;;9.18;45.90;100284.91;5087505;28;20103;-74
2022/12/27 10:15:25;;;;;;;2.60;1.60;;;;;;;8.94;46.83;100252.25;5088345;28;20046;-74
2022/12/27 10:18:10;;;;;;;2.63;1.40;;;;;;;9.22;46.04;100281.28;5088144;28;20044;-74
2022/12/27 10:20:53;;;;;;;2.65;1.70;;;;;;;9.19;45.66;100273.41;5087651;28;20051;-74
2022/12/27 10:23:23;;;;;;;3.03;1.73;;;;;;;9.41;48.83;100291.25;5088261;28;20231;-74
2022/12/27 10:25:58;;;;;;;2.50;1.77;;;;;;;9.53;47.22;100296.97;5087731;28;20052;-74
2022/12/27 10:28:29;;;;;;;3.25;1.52;;;;;;;9.63;48.22;100286.91;5088263;28;20047;-74
2022/12/27 10:30:56;;;;;;;3.75;2.13;;;;;;;9.73;48.08;100288.31;5088229;28;20036;-74
2022/12/27 10:33:27;;;;;;;3.83;1.98;;;;;;;9.89;46.61;100283.31;5088157;28;20064;-74
2022/12/27 10:35:55;;;;;;;3.67;1.85;;;;;;;9.95;46.89;100297.16;5087241;28;20097;-74
2022/12/27 10:38:23;;;;;;;3.67;1.90;;;;;;;10.00;46.93;100290.84;5087774;28;20071;-74
2022/12/27 10:40:57;;;;;;;4.00;1.90;;;;;;;9.88;44.67;100265.69;5088021;28;20040;-74
2022/12/27 10:43:32;;;;;;;4.30;2.20;;;;;;;10.12;45.25;100288.59;5087833;28;20036;-74
2022/12/27 10:46:12;;;;;;;3.10;1.95;;;;;;;10.16;41.56;100291.97;5088288;28;20219;-74
2022/12/27 10:48:40;;;;;;;2.70;1.52;;;;;;;10.23;45.59;100294.34;5087770;28;20255;-74
2022/12/27 10:51:10;;;;;;;5.57;1.70;;;;;;;10.30;45.40;100284.34;5088081;28;20192;-74
2022/12/27 10:53:40;;;;;;;2.85;1.67;;;;;;;10.23;46.17;100259.03;5086649;28;20051;-74
2022/12/27 10:56:14;;;;;;;3.08;2.15;;;;;;;10.52;44.95;100287.00;5086517;28;20275;-74
2022/12/27 10:58:43;;;;;;;4.45;1.80;;;;;;;10.36;45.22;100257.63;5087807;28;20044;-74
2022/12/27 11:01:23;;;;;;;3.10;1.65;;;;;;;10.57;41.77;100283.25;5086385;28;20048;-74
2022/12/27 11:04:08;;;;;;;3.47;1.55;;;;;;;10.58;44.32;100276.16;5087291;28;20188;-74
2022/12/27 11:06:34;;;;;;;2.33;1.40;;;;;;;10.39;45.01;100236.28;5087581;28;20331;-74
2022/12/27 11:09:19;;;;;;;2.70;1.63;;;;;;;10.50;40.67;100235.84;5085298;28;20050;-73
2022/12/27 11:11:46;;;;;;;3.45;1.60;;;;;;;10.70;44.96;100267.72;5086300;28;20044;-74
2022/12/27 11:14:19;;;;;;;2.80;1.52;;;;;;;10.00;41.68;100132.81;5086946;28;20051;-74
2022/12/27 11:16:48;;;;;;;2.22;1.40;;;;;;;10.67;42.70;100259.03;5086243;28;20040;-74
2022/12/27 11:19:24;;;;;;;4.30;1.83;;;;;;;10.36;40.76;100215.22;5086910;28;20062;-74
2022/12/27 11:21:53;;;;;;;3.28;1.40;;;;;;;10.68;43.93;100266.91;5086952;28;20185;-74
2022/12/27 11:24:22;;;;;;;4.05;1.50;;;;;;;9.56;43.95;100068.41;5085864;28;20074;-74
2022/12/27 11:26:56;;;;;;;2.90;1.65;;;;;;;10.76;42.17;100277.19;5087053;28;20048;-75
2022/12/27 11:29:26;;;;;;;3.10;1.50;;;;;;;10.71;44.00;100256.19;5086083;28;20044;-74
2022/12/27 11:31:54;;;;;;;2.70;1.40;;;;;;;10.71;43.33;100260.63;5086801;28;20064;-74
2022/12/27 11:34:29;;;;;;;3.35;1.63;;;;;;;10.69;41.18;100257.16;5085907;28;20040;-74
2022/12/27 11:37:06;;;;;;;3.95;1.70;;;;;;;10.66;40.52;100257.28;5086689;28;20301;-74
2022/12/27 11:39:41;;;;;;;2.95;1.90;;;;;;;10.68;40.87;100258.09;5086348;28;20068;-74
2022/12/27 11:42:19;;;;;;;3.65;1.75;;;;;;;10.64;41.75;100245.91;5086752;28;20351;-74
2022/12/27 11:44:56;;;;;;;4.22;1.63;;;;;;;10.63;42.85;100260.06;5085725;28;20086;-74
2022/12/27 11:47:32;;;;;;;3.42;1.60;;;;;;;10.63;42.56;100226.47;5086293;28;20044;-74
2022/12/27 11:50:14;;;;;;;3.25;1.85;;;;;;;10.66;42.66;100222.84;5085964;28;20305;-74
2022/12/27 11:52:54;;;;;;;3.70;2.05;;;;;;;10.65;41.80;100221.97;5085602;28;20196;-75
2022/12/27 11:55:47;;;;;;;4.30;2.05;;;;;;;10.68;41.30;100213.88;5085224;28;20047;-74
2022/12/27 11:58:41;;;;;;;3.97;1.40;;;;;;;10.70;40.55;100209.38;5085167;28;20040;-74
2022/12/27 12:01:30;;;;;;;2.78;1.85;;;;;;;10.69;40.89;100228.00;5085069;28;20212;-75
2022/12/27 12:04:32;;;;;;;3.47;1.90;;;;;;;10.47;40.81;100177.69;5086272;28;20050;-74
2022/12/27 12:07:07;;;;;;;2.50;1.60;;;;;;;10.33;42.01;100159.69;5085168;28;20127;-74
2022/12/27 12:09:49;;;;;;;3.03;1.73;;;;;;;10.45;41.29;100190.13;5086330;28;20200;-74
2022/12/27 12:12:51;;;;;;;2.50;1.65;;;;;;;10.16;40.97;100138.34;5085193;28;20044;-74
2022/12/27 12:15:44;;;;;;;2.90;1.70;;;;;;;10.53;40.64;100202.13;5034047;28;20075;-74
2022/12/27 12:18:50;;;;;;;2.38;1.60;;;;;;;10.49;39.98;100210.28;5085840;28;20053;-74
2022/12/27 12:21:25;;;;;;;2.50;1.50;;;;;;;10.43;42.37;100215.84;5056885;28;20307;-75
2022/12/27 12:24:22;;;;;;;4.35;1.60;;;;;;;10.17;40.62;100169.19;5084625;28;20048;-75
2022/12/27 12:27:06;;;;;;;4.85;2.10;;;;;;;10.39;41.91;100212.44;5048092;28;20239;-75
2022/12/27 12:29:50;;;;;;;4.05;2.00;;;;;;;10.40;41.66;100215.97;5085580;28;20044;-74
2022/12/27 12:32:36;;;;;;;3.80;1.85;;;;;;;10.34;41.01;100209.13;5084154;28;20067;-74
2022/12/27 12:35:46;;;;;;;3.45;1.70;;;;;;;10.34;40.25;100200.31;5084533;28;20036;-74
2022/12/27 12:38:23;;;;;;;2.42;1.42;;;;;;;10.34;41.59;100198.53;5084499;28;20116;-74
2022/12/27 12:41:23;;;;;;;3.00;1.60;;;;;;;10.34;40.60;100181.75;5084172;28;20102;-74
2022/12/27 12:44:23;;;;;;;3.65;1.60;;;;;;;10.36;40.31;100199.31;5084882;28;20361;-75
2022/12/27 12:47:00;;;;;;;3.88;2.05;;;;;;;10.33;41.18;100194.16;5085338;28;20048;-75
2022/12/27 12:49:44;;;;;;;3.47;1.60;;;;;;;10.33;41.11;100193.28;5086030;28;20050;-75
2022/12/27 12:52:38;;;;;;;2.90;2.00;;;;;;;9.82;40.23;100120.31;5084456;28;20063;-74
2022/12/27 12:55:27;;;;;;;2.90;1.60;;;;;;;9.97;40.99;100147.97;5084399;28;20292;-75
2022/12/27 12:58:07;;;;;;;2.75;1.73;;;;;;;10.18;42.08;100186.81;5084507;28;20058;-76
2022/12/27 13:00:51;;;;;;;11.75;1.88;;;;;;;10.12;41.37;100192.38;5085280;28;20044;-75
2022/12/27 13:03:53;;;;;;;3.25;1.70;;;;;;;10.08;40.19;100188.97;5085233;28;20047;-75
2022/12/27 13:06:45;;;;;;;4.03;1.83;;;;;;;9.86;40.49;100159.84;5084319;28;20159;-75
2022/12/27 13:09:24;;;;;;;2.83;1.55;;;;;;;8.99;42.37;100015.00;5085713;28;20117;-75
2022/12/27 13:12:02;;;;;;;3.30;1.75;;;;;;;9.83;42.57;100167.03;5084183;28;20082;-75
2022/12/27 13:15:07;;;;;;;3.38;1.50;;;;;;;9.98;41.01;100184.09;5084369;28;20044;-75
2022/12/27 13:17:43;;;;;;;2.95;1.90;;;;;;;9.90;42.37;100195.88;5085112;28;20060;-75
2022/12/27 13:20:36;;;;;;;3.47;1.80;;;;;;;9.92;41.93;100199.31;5085176;28;20044;-75
2022/12/27 13:23:12;;;;;;;4.88;1.92;;;;;;;9.88;42.82;100202.13;5085431;28;20044;-75
2022/12/27 13:25:47;;;;;;;2.78;1.80;;;;;;;9.82;43.19;100203.25;5084362;28;20331;-74
2022/12/27 13:28:32;;;;;;;3.55;1.67;;;;;;;9.81;42.80;100193.56;5085166;28;20048;-74
2022/12/27 13:31:06;;;;;;;3.72;1.60;;;;;;;9.80;43.64;100209.50;5084602;28;20339;-74
2022/12/27 13:33:45;;;;;;;3.30;1.90;;;;;;;9.76;43.71;100192.03;5088344;28;20056;-75
2022/12/27 13:36:24;;;;;;;4.55;2.13;;;;;;;9.06;42.99;100088.81;5089008;28;20045;-74
2022/12/27 13:39:17;;;;;;;2.50;1.50;;;;;;;9.73;43.41;100198.31;5088087;28;20115;-74
2022/12/27 13:41:58;;;;;;;4.30;1.70;;;;;;;9.71;43.39;100210.72;5086292;28;20056;-75